createdAt,value
2023-04-01T00:02:24.427Z,94533.53
2023-04-01T00:04:50.923Z,94533.22
2023-04-01T00:07:17.430Z,94533.53
2023-04-01T00:09:46.072Z,94541.44
2023-04-01T00:12:12.592Z,94524.50
2023-04-01T00:14:39.455Z,94521.84
2023-04-01T00:17:05.990Z,94535.63
2023-04-01T00:19:32.711Z,94528.63
2023-04-01T00:21:59.562Z,94528.75
2023-04-01T00:24:26.058Z,94531.72
2023-04-01T00:26:52.996Z,94515.16
2023-04-01T00:29:19.527Z,94531.72
2023-04-01T00:31:46.124Z,94520.34
2023-04-01T00:34:13.550Z,94528.59
2023-04-01T00:36:40.137Z,94519.66
2023-04-01T00:39:06.710Z,94527.44
2023-04-01T00:41:33.398Z,94543.50
2023-04-01T00:44:24.693Z,94551.69
2023-04-01T00:46:51.492Z,94552.09
2023-04-01T00:49:19.957Z,94555.22
2023-04-01T00:51:48.335Z,94553.97
2023-04-01T00:54:15.513Z,94543.06
2023-04-01T00:56:51.751Z,94543.09
2023-04-01T00:59:24.994Z,94533.84
2023-04-01T01:01:51.720Z,94537.31
2023-04-01T01:04:36.610Z,94524.94
2023-04-01T01:07:43.399Z,94525.28
2023-04-01T01:10:27.703Z,94520.69
2023-04-01T01:12:54.147Z,94526.22
2023-04-01T01:15:26.004Z,94523.44
2023-04-01T01:18:01.782Z,94521.03
2023-04-01T01:20:43.804Z,94524.22
2023-04-01T01:23:16.318Z,94532.03
2023-04-01T01:25:58.116Z,94527.81
2023-04-01T01:28:48.556Z,94532.88
2023-04-01T01:31:33.705Z,94527.25
2023-04-01T01:34:23.688Z,94521.06
2023-04-01T01:36:55.069Z,94541.91
2023-04-01T01:39:22.186Z,94554.31
2023-04-01T01:41:49.122Z,94557.44
2023-04-01T01:44:17.164Z,94551.44
2023-04-01T01:46:44.918Z,94550.88
2023-04-01T01:49:12.772Z,94538.72
2023-04-01T01:51:39.304Z,94535.09
2023-04-01T01:54:05.846Z,94533.00
2023-04-01T01:56:35.987Z,94517.78
2023-04-01T01:59:05.090Z,94527.44
2023-04-01T02:01:34.282Z,94513.56
2023-04-01T02:04:01.140Z,94504.38
2023-04-01T02:06:30.368Z,94511.72
2023-04-01T02:09:00.351Z,94512.28
2023-04-01T02:11:48.908Z,94496.47
2023-04-01T02:14:18.314Z,94500.13
2023-04-01T02:16:46.191Z,94496.56
2023-04-01T02:19:13.410Z,94492.00
2023-04-01T02:21:41.006Z,94483.38
2023-04-01T02:24:12.496Z,94478.81
2023-04-01T02:26:39.236Z,94480.97
2023-04-01T02:29:06.645Z,94489.47
2023-04-01T02:31:33.315Z,94489.94
2023-04-01T02:34:00.061Z,94496.81
2023-04-01T02:36:26.747Z,94476.19
2023-04-01T02:38:53.393Z,94454.25
2023-04-01T02:41:21.030Z,94454.94
2023-04-01T02:43:47.558Z,94456.06
2023-04-01T02:46:14.119Z,94450.72
2023-04-01T02:48:40.686Z,94450.34
2023-04-01T02:51:07.525Z,94454.94
2023-04-01T02:53:34.024Z,94443.88
2023-04-01T02:56:00.578Z,94450.44
2023-04-01T02:58:27.101Z,94448.22
2023-04-01T03:00:53.691Z,94456.09
2023-04-01T03:03:20.268Z,94457.28
2023-04-01T03:05:46.860Z,94451.41
2023-04-01T03:08:13.431Z,94448.13
2023-04-01T03:10:39.970Z,94452.66
2023-04-01T03:13:06.528Z,94462.50
2023-04-01T03:15:33.396Z,94455.50
2023-04-01T03:18:01.927Z,94460.78
2023-04-01T03:20:28.554Z,94463.53
2023-04-01T03:22:55.046Z,94473.75
2023-04-01T03:25:21.618Z,94465.50
2023-04-01T03:27:48.130Z,94471.56
2023-04-01T03:30:14.730Z,94470.66
2023-04-01T03:32:41.421Z,94467.34
2023-04-01T03:35:08.373Z,94462.63
2023-04-01T03:37:34.875Z,94472.47
2023-04-01T03:40:01.600Z,94466.41
2023-04-01T03:42:28.095Z,94471.19
2023-04-01T03:44:54.586Z,94485.41
2023-04-01T03:47:21.098Z,94491.22
2023-04-01T03:49:47.597Z,94485.19
2023-04-01T03:52:14.112Z,94486.09
2023-04-01T03:54:40.608Z,94486.53
2023-04-01T03:57:07.261Z,94495.13
2023-04-01T03:59:33.870Z,94481.97
2023-04-01T04:02:00.388Z,94486.66
2023-04-01T04:04:27.749Z,94472.00
2023-04-01T04:06:54.899Z,94480.31
2023-04-01T04:09:21.528Z,94469.19
2023-04-01T04:11:48.060Z,94455.94
2023-04-01T04:14:14.548Z,94457.50
2023-04-01T04:16:41.243Z,94454.78
2023-04-01T04:19:07.850Z,94459.50
2023-04-01T04:21:34.492Z,94460.19
2023-04-01T04:24:01.661Z,94447.81
2023-04-01T04:26:28.300Z,94449.97
2023-04-01T04:28:55.385Z,94452.16
2023-04-01T04:31:26.877Z,94456.84
2023-04-01T04:33:53.920Z,94451.38
2023-04-01T04:36:23.083Z,94459.31
2023-04-01T04:38:49.636Z,94455.16
2023-04-01T04:41:18.161Z,94459.16
2023-04-01T04:43:50.751Z,94473.00
2023-04-01T04:46:17.811Z,94484.59
2023-04-01T04:48:45.147Z,94474.91
2023-04-01T04:51:17.907Z,94467.63
2023-04-01T04:53:44.510Z,94467.88
2023-04-01T04:56:11.138Z,94467.47
2023-04-01T04:58:38.953Z,94476.03
2023-04-01T05:01:10.257Z,94481.59
2023-04-01T05:03:39.560Z,94464.59
2023-04-01T05:06:06.986Z,94474.34
2023-04-01T05:08:33.887Z,94485.69
2023-04-01T05:11:01.332Z,94474.47
2023-04-01T05:13:28.647Z,94473.50
2023-04-01T05:15:55.311Z,94482.28
2023-04-01T05:18:22.310Z,94486.44
2023-04-01T05:20:50.676Z,94477.59
2023-04-01T05:23:17.230Z,94485.25
2023-04-01T05:25:44.376Z,94480.59
2023-04-01T05:28:10.951Z,94495.59
2023-04-01T05:30:37.559Z,94483.69
2023-04-01T05:33:04.236Z,94487.72
2023-04-01T05:35:30.955Z,94492.41
2023-04-01T05:37:57.571Z,94486.66
2023-04-01T05:40:24.164Z,94489.28
2023-04-01T05:42:52.171Z,94494.06
2023-04-01T05:45:18.678Z,94488.44
2023-04-01T05:47:45.323Z,94480.81
2023-04-01T05:50:12.052Z,94485.69
2023-04-01T05:52:38.959Z,94487.75
2023-04-01T05:55:06.250Z,94484.13
2023-04-01T05:57:32.876Z,94474.75
2023-04-01T05:59:59.380Z,94480.44
2023-04-01T06:02:26.012Z,94477.03
2023-04-01T06:05:02.555Z,94487.38
2023-04-01T06:07:30.026Z,94491.03
2023-04-01T06:09:56.561Z,94486.81
2023-04-01T06:12:32.423Z,94491.28
2023-04-01T06:15:11.823Z,94489.56
2023-04-01T06:17:50.504Z,94491.94
2023-04-01T06:20:25.706Z,94483.09
2023-04-01T06:23:07.486Z,94480.47
2023-04-01T06:25:54.265Z,94476.50
2023-04-01T06:28:45.163Z,94474.09
2023-04-01T06:31:35.048Z,94468.94
2023-04-01T06:34:07.639Z,94486.63
2023-04-01T06:36:59.062Z,94491.53
2023-04-01T06:39:43.890Z,94495.44
2023-04-01T06:42:25.651Z,94492.88
2023-04-01T06:45:18.752Z,94498.22
2023-04-01T06:48:03.993Z,94506.84
2023-04-01T06:50:45.297Z,94508.13
2023-04-01T06:53:14.391Z,94518.84
2023-04-01T06:55:43.848Z,94521.28
2023-04-01T06:58:23.366Z,94517.66
2023-04-01T07:00:53.107Z,94520.03
2023-04-01T07:03:42.933Z,94521.78
2023-04-01T07:06:24.004Z,94522.22
2023-04-01T07:08:50.702Z,94513.53
2023-04-01T07:11:33.025Z,94518.25
2023-04-01T07:14:06.808Z,94524.84
2023-04-01T07:16:46.346Z,94513.00
2023-04-01T07:19:32.640Z,94526.25
2023-04-01T07:22:05.293Z,94528.03
2023-04-01T07:24:40.794Z,94533.94
2023-04-01T07:27:11.402Z,94531.84
2023-04-01T07:29:38.114Z,94537.69
2023-04-01T07:32:13.790Z,94545.13
2023-04-01T07:34:54.076Z,94551.72
2023-04-01T07:37:32.844Z,94553.28
2023-04-01T07:40:05.067Z,94561.22
2023-04-01T07:42:38.533Z,94555.84
2023-04-01T07:45:26.007Z,94558.25
2023-04-01T07:48:00.807Z,94550.88
2023-04-01T07:50:33.960Z,94553.53
2023-04-01T07:53:09.110Z,94549.94
2023-04-01T07:55:44.759Z,94552.69
2023-04-01T07:58:23.371Z,94551.56
2023-04-01T08:01:03.429Z,94550.97
2023-04-01T08:03:54.564Z,94554.78
2023-04-01T08:07:04.661Z,94556.75
2023-04-01T08:09:59.948Z,94552.50
2023-04-01T08:12:32.604Z,94548.59
2023-04-01T08:15:05.221Z,94547.47
2023-04-01T08:17:44.857Z,94549.28
2023-04-01T08:20:33.392Z,94548.50
2023-04-01T08:23:22.732Z,94551.81
2023-04-01T08:25:55.180Z,94554.78
2023-04-01T08:28:44.377Z,94560.91
2023-04-01T08:31:18.676Z,94552.97
2023-04-01T08:33:47.430Z,94551.78
2023-04-01T08:36:24.217Z,94543.09
2023-04-01T08:38:57.006Z,94550.22
2023-04-01T08:41:32.552Z,94569.66
2023-04-01T08:44:05.064Z,94567.34
2023-04-01T08:46:58.041Z,94574.09
2023-04-01T08:49:57.669Z,94579.47
2023-04-01T08:52:45.859Z,94567.66
2023-04-01T08:55:24.309Z,94567.06
2023-04-01T08:57:59.837Z,94564.91
2023-04-01T09:00:29.392Z,94557.84
2023-04-01T09:03:31.020Z,94554.31
2023-04-01T09:06:06.612Z,94547.81
2023-04-01T09:08:51.378Z,94543.00
2023-04-01T09:11:32.178Z,94549.28
2023-04-01T09:14:29.556Z,94549.28
2023-04-01T09:17:05.214Z,94550.72
2023-04-01T09:19:42.597Z,94551.84
2023-04-01T09:22:34.781Z,94555.41
2023-04-01T09:25:16.477Z,94552.94
2023-04-01T09:27:52.267Z,94556.31
2023-04-01T09:30:35.604Z,94564.72
2023-04-01T09:33:23.152Z,94561.09
2023-04-01T09:36:05.387Z,94542.41
2023-04-01T09:38:47.451Z,94550.41
2023-04-01T09:41:27.390Z,94543.44
2023-04-01T09:44:04.000Z,94569.38
2023-04-01T09:47:12.053Z,94556.59
2023-04-01T09:50:04.760Z,94558.78
2023-04-01T09:52:40.012Z,94551.03
2023-04-01T09:55:41.999Z,94543.53
2023-04-01T09:58:26.695Z,94548.84
2023-04-01T10:01:08.441Z,94545.47
2023-04-01T10:04:19.746Z,94544.03
2023-04-01T10:07:23.650Z,94552.59
2023-04-01T10:10:23.943Z,94558.66
2023-04-01T10:12:56.326Z,94559.50
2023-04-01T10:16:00.156Z,94548.25
2023-04-01T10:18:47.531Z,94543.22
2023-04-01T10:21:41.745Z,94534.94
2023-04-01T10:24:29.834Z,94540.00
2023-04-01T10:27:22.611Z,94539.34
2023-04-01T10:30:07.389Z,94524.81
2023-04-01T10:32:57.279Z,94525.66
2023-04-01T10:35:26.941Z,94530.84
2023-04-01T10:37:56.516Z,94511.19
2023-04-01T10:40:56.107Z,94498.22
2023-04-01T10:43:47.549Z,94503.41
2023-04-01T10:46:40.514Z,94510.00
2023-04-01T10:49:44.508Z,94504.88
2023-04-01T10:52:32.405Z,94505.88
2023-04-01T10:55:15.263Z,94499.56
2023-04-01T10:57:53.907Z,94496.34
2023-04-01T11:00:23.042Z,94498.44
2023-04-01T11:03:19.556Z,94492.75
2023-04-01T11:06:10.908Z,94485.25
2023-04-01T11:09:11.532Z,94477.75
2023-04-01T11:11:53.050Z,94475.50
2023-04-01T11:14:43.535Z,94509.72
2023-04-01T11:17:47.747Z,94507.53
2023-04-01T11:20:34.296Z,94539.22
2023-04-01T11:23:25.586Z,94539.63
2023-04-01T11:26:07.265Z,94532.03
2023-04-01T11:29:08.654Z,94531.72
2023-04-01T11:31:53.933Z,94530.56
2023-04-01T11:34:37.003Z,94514.25
2023-04-01T11:37:18.097Z,94509.72
2023-04-01T11:39:50.646Z,94504.59
2023-04-01T11:42:46.612Z,94502.09
2023-04-01T11:45:28.305Z,94503.72
2023-04-01T11:48:24.846Z,94493.50
2023-04-01T11:51:06.610Z,94480.19
2023-04-01T11:53:57.337Z,94479.94
2023-04-01T11:57:06.296Z,94477.56
2023-04-01T11:59:40.596Z,94468.56
2023-04-01T12:02:25.266Z,94469.09
2023-04-01T12:05:10.384Z,94463.88
2023-04-01T12:07:54.759Z,94470.25
2023-04-01T12:10:23.855Z,94472.75
2023-04-01T12:13:01.540Z,94468.44
2023-04-01T12:16:06.017Z,94455.25
2023-04-01T12:18:59.372Z,94451.78
2023-04-01T12:21:39.873Z,94451.34
2023-04-01T12:24:28.280Z,94446.38
2023-04-01T12:27:19.462Z,94448.63
2023-04-01T12:29:54.892Z,94445.72
2023-04-01T12:32:31.741Z,94437.97
2023-04-01T12:34:58.174Z,94434.44
2023-04-01T12:37:43.044Z,94427.84
2023-04-01T12:40:27.774Z,94433.84
2023-04-01T12:43:22.107Z,94429.31
2023-04-01T12:46:17.025Z,94420.53
2023-04-01T12:48:54.799Z,94420.50
2023-04-01T12:51:56.929Z,94415.72
2023-04-01T12:54:33.694Z,94415.19
2023-04-01T12:57:09.329Z,94412.03
2023-04-01T13:00:13.297Z,94405.03
2023-04-01T13:03:13.614Z,94408.13
2023-04-01T13:06:18.556Z,94404.63
2023-04-01T13:09:11.727Z,94399.75
2023-04-01T13:11:57.183Z,94397.38
2023-04-01T13:14:44.952Z,94400.91
2023-04-01T13:17:49.070Z,94399.00
2023-04-01T13:20:38.969Z,94406.31
2023-04-01T13:23:24.143Z,94404.84
2023-04-01T13:26:21.286Z,94392.72
2023-04-01T13:29:26.850Z,94382.19
2023-04-01T13:32:03.151Z,94371.50
2023-04-01T13:34:38.652Z,94373.00
2023-04-01T13:37:28.166Z,94360.31
2023-04-01T13:40:19.210Z,94365.78
2023-04-01T13:42:49.451Z,94358.22
2023-04-01T13:52:23.848Z,94342.72
2023-04-01T14:02:28.319Z,94341.97
2023-04-01T14:05:26.488Z,94350.19
2023-04-01T14:10:38.825Z,94354.09
2023-04-01T14:20:23.999Z,94338.84
2023-04-01T14:26:12.668Z,94345.69
2023-04-01T14:28:44.730Z,94350.91
2023-04-01T14:31:35.966Z,94346.44
2023-04-01T14:34:30.014Z,94344.53
2023-04-01T14:37:18.321Z,94340.84
2023-04-01T14:40:01.303Z,94330.94
2023-04-01T14:42:49.523Z,94322.97
2023-04-01T14:45:43.402Z,94325.56
2023-04-01T14:48:53.834Z,94324.88
2023-04-01T15:05:51.159Z,94356.09
2023-04-01T15:08:53.086Z,94365.38
2023-04-01T15:11:50.418Z,94356.00
2023-04-01T15:15:05.051Z,94358.97
2023-04-01T15:17:48.042Z,94353.47
2023-04-01T15:20:20.634Z,94355.97
2023-04-01T15:23:11.004Z,94353.00
2023-04-01T15:25:56.196Z,94340.22
2023-04-01T15:28:25.774Z,94350.13
2023-04-01T15:31:16.764Z,94339.72
2023-04-01T15:33:51.494Z,94334.25
2023-04-01T15:36:38.873Z,94334.97
2023-04-01T15:39:09.260Z,94330.25
2023-04-01T15:41:52.255Z,94327.34
2023-04-01T15:44:53.914Z,94326.16
2023-04-01T15:47:26.798Z,94321.97
2023-04-01T15:50:31.980Z,94325.75
2023-04-01T15:53:31.555Z,94332.69
2023-04-01T15:56:20.167Z,94332.72
2023-04-01T15:59:11.638Z,94333.78
2023-04-01T16:02:09.079Z,94332.47
2023-04-01T16:04:49.273Z,94329.19
2023-04-01T16:07:24.669Z,94342.06
2023-04-01T16:10:28.639Z,94338.81
2023-04-01T16:13:07.019Z,94344.47
2023-04-01T16:16:11.682Z,94335.81
2023-04-01T16:18:53.342Z,94343.88
2023-04-01T16:21:35.067Z,94342.88
2023-04-01T16:24:30.947Z,94342.75
2023-04-01T16:27:22.134Z,94334.59
2023-04-01T16:30:26.485Z,94348.31
2023-04-01T16:33:00.462Z,94342.91
2023-04-01T16:35:35.345Z,94339.88
2023-04-01T16:38:29.951Z,94342.94
2023-04-01T16:41:08.518Z,94344.50
2023-04-01T16:44:09.234Z,94343.31
2023-04-01T16:46:39.357Z,94339.19
2023-04-01T16:49:24.089Z,94342.16
2023-04-01T16:52:09.424Z,94343.81
2023-04-01T16:55:11.840Z,94344.72
2023-04-01T16:58:10.649Z,94342.16
2023-04-01T17:01:19.913Z,94344.31
2023-04-01T17:07:04.641Z,94353.94
2023-04-01T17:09:47.041Z,94357.69
2023-04-01T17:12:39.811Z,94354.41
2023-04-01T17:15:09.701Z,94357.06
2023-04-01T17:17:46.853Z,94362.84
2023-04-01T17:20:54.795Z,94370.72
2023-04-01T17:23:26.133Z,94377.22
2023-04-01T17:26:17.257Z,94369.00
2023-04-01T17:28:54.247Z,94376.81
2023-04-01T17:31:26.709Z,94374.72
2023-04-01T17:34:05.104Z,94383.75
2023-04-01T17:36:44.911Z,94380.09
2023-04-01T17:39:38.886Z,94376.25
2023-04-01T17:42:16.694Z,94384.78
2023-04-01T17:44:55.531Z,94395.44
2023-04-01T17:47:28.836Z,94397.91
2023-04-01T17:50:20.356Z,94395.25
2023-04-01T17:52:58.532Z,94406.91
2023-04-01T17:55:48.520Z,94421.72
2023-04-01T17:58:22.000Z,94426.81
2023-04-01T18:01:21.183Z,94422.81
2023-04-01T18:04:05.736Z,94426.59
2023-04-01T18:06:35.024Z,94426.47
2023-04-01T18:09:14.840Z,94430.97
2023-04-01T18:12:08.070Z,94430.72
2023-04-01T18:14:37.460Z,94439.44
2023-04-01T18:17:09.747Z,94439.31
2023-04-01T18:19:43.704Z,94437.59
2023-04-01T18:22:29.152Z,94439.53
2023-04-01T18:25:02.817Z,94451.91
2023-04-01T18:27:33.182Z,94458.38
2023-04-01T18:30:12.937Z,94457.78
2023-04-01T18:32:52.949Z,94455.25
2023-04-01T18:35:33.399Z,94454.22
2023-04-01T18:38:09.134Z,94462.84
2023-04-01T18:40:44.432Z,94460.19
2023-04-01T18:43:34.357Z,94464.75
2023-04-01T18:46:03.401Z,94467.19
2023-04-01T18:48:47.310Z,94473.41
2023-04-01T18:51:40.980Z,94477.78
2023-04-01T18:54:28.383Z,94477.78
2023-04-01T18:57:14.210Z,94477.31
2023-04-01T18:59:48.154Z,94481.78
2023-04-01T19:02:19.251Z,94494.53
2023-04-01T19:04:58.010Z,94494.31
2023-04-01T19:07:42.073Z,94490.63
2023-04-01T19:10:25.434Z,94498.75
2023-04-01T19:13:16.145Z,94503.25
2023-04-01T19:16:01.774Z,94501.66
2023-04-01T19:18:46.550Z,94506.94
2023-04-01T19:21:34.596Z,94517.81
2023-04-01T19:24:23.152Z,94516.91
2023-04-01T19:27:12.846Z,94517.69
2023-04-01T19:30:02.371Z,94516.06
2023-04-01T19:32:56.382Z,94523.53
2023-04-01T19:35:40.947Z,94524.28
2023-04-01T19:38:21.181Z,94528.13
2023-04-01T19:40:54.322Z,94527.78
2023-04-01T19:43:27.180Z,94530.66
2023-04-01T19:46:05.948Z,94534.31
2023-04-01T19:48:38.790Z,94529.50
2023-04-01T19:51:11.670Z,94530.94
2023-04-01T19:53:55.801Z,94535.78
2023-04-01T19:56:23.934Z,94528.97
2023-04-01T19:59:02.862Z,94538.56
2023-04-01T20:01:45.965Z,94541.94
2023-04-01T20:04:18.969Z,94549.22
2023-04-01T20:07:12.890Z,94544.16
2023-04-01T20:10:01.135Z,94548.22
2023-04-01T20:12:44.783Z,94547.19
2023-04-01T20:15:46.752Z,94552.81
2023-04-01T20:18:24.237Z,94542.00
2023-04-01T20:21:15.403Z,94556.94
2023-04-01T20:23:44.581Z,94554.38
2023-04-01T20:26:13.050Z,94559.53
2023-04-01T20:28:42.604Z,94561.06
2023-04-01T20:31:29.147Z,94557.53
2023-04-01T20:34:11.236Z,94554.00
2023-04-01T20:36:56.498Z,94571.53
2023-04-01T20:39:35.194Z,94568.59
2023-04-01T20:42:23.040Z,94564.09
2023-04-01T20:45:08.279Z,94563.00
2023-04-01T20:48:00.803Z,94569.72
2023-04-01T20:51:06.678Z,94565.25
2023-04-01T20:54:10.624Z,94565.19
2023-04-01T20:56:48.990Z,94566.06
2023-04-01T20:59:19.318Z,94565.47
2023-04-01T21:01:55.902Z,94567.97
2023-04-01T21:04:28.495Z,94562.13
2023-04-01T21:07:09.851Z,94567.25
2023-04-01T21:09:54.915Z,94558.81
2023-04-01T21:12:36.712Z,94571.81
2023-04-01T21:15:12.612Z,94568.69
2023-04-01T21:17:47.932Z,94573.66
2023-04-01T21:20:20.198Z,94577.13
2023-04-01T21:23:23.921Z,94583.50
2023-04-01T21:26:10.395Z,94576.91
2023-04-01T21:28:41.366Z,94585.22
2023-04-01T21:31:32.743Z,94570.25
2023-04-01T21:34:31.089Z,94585.38
2023-04-01T21:37:18.569Z,94578.06
2023-04-01T21:40:03.346Z,94583.03
2023-04-01T21:42:39.923Z,94574.19
2023-04-01T21:45:48.164Z,94574.41
2023-04-01T21:48:51.878Z,94578.06
2023-04-01T21:51:55.425Z,94575.13
2023-04-01T21:54:43.391Z,94577.47
2023-04-01T21:57:20.052Z,94580.97
2023-04-01T22:00:27.379Z,94577.28
2023-04-01T22:02:59.933Z,94587.13
2023-04-01T22:05:34.731Z,94575.13
2023-04-01T22:08:32.550Z,94581.06
2023-04-01T22:11:24.437Z,94593.28
2023-04-01T22:13:55.989Z,94597.69
2023-04-01T22:16:42.629Z,94595.69
2023-04-01T22:19:28.116Z,94593.72
2023-04-01T22:22:13.741Z,94591.38
2023-04-01T22:25:01.491Z,94602.78
2023-04-01T22:27:29.646Z,94596.19
2023-04-01T22:30:02.128Z,94595.50
2023-04-01T22:32:38.321Z,94589.53
2023-04-01T22:35:07.579Z,94586.63
2023-04-01T22:38:00.132Z,94580.88
2023-04-01T22:40:34.814Z,94583.53
2023-04-01T22:43:18.448Z,94582.53
2023-04-01T22:46:08.762Z,94585.63
2023-04-01T22:48:42.199Z,94572.78
2023-04-01T22:51:17.336Z,94584.41
2023-04-01T22:53:49.828Z,94577.47
2023-04-01T22:56:19.628Z,94584.41
2023-04-01T22:58:53.158Z,94586.06
2023-04-01T23:01:29.014Z,94582.88
2023-04-01T23:03:56.934Z,94588.31
2023-04-01T23:06:28.814Z,94599.72
2023-04-01T23:09:09.969Z,94585.66
2023-04-01T23:11:40.713Z,94582.88
2023-04-01T23:14:22.631Z,94589.19
2023-04-01T23:17:00.628Z,94600.88
2023-04-01T23:19:35.964Z,94603.84
2023-04-01T23:22:27.801Z,94599.31
2023-04-01T23:24:57.640Z,94601.78
2023-04-01T23:27:32.386Z,94601.94
2023-04-01T23:29:58.962Z,94601.63
2023-04-01T23:32:26.270Z,94600.84
2023-04-01T23:34:55.344Z,94599.66
2023-04-01T23:37:22.312Z,94599.78
2023-04-01T23:39:59.248Z,94593.66
2023-04-01T23:42:44.022Z,94598.44
2023-04-01T23:45:16.464Z,94598.03
2023-04-01T23:47:43.145Z,94604.34
2023-04-01T23:50:17.795Z,94602.28
2023-04-01T23:53:01.619Z,94610.25
2023-04-01T23:55:35.216Z,94611.94
2023-04-01T23:58:07.011Z,94613.13
